SJNE weather

Wapum Airport
Bonfim, Roraima, Brazil

Public forecast

Using degrees Celsius for public forecast. Weather courtesy of forecast.io.

Closest aviation weather report (METAR) to Wapum Airport

Closest report is Atlas Brasil Cantanhede Airport, 67.5 nm (125.0 km) NW. Retrieved 2020/05/29 14:00 UTC (21 minutes ago):

SBBV 291400Z 10007KT 8000 -RA BKN008 BKN020 OVC080 25/23 Q1016

Closest aviation forecast (TAF) to Wapum Airport

Closest forecast is Atlas Brasil Cantanhede Airport, 67.5 nm (125.0 km) NW. Retrieved 2020/05/29 12:00 UTC (2 hours ago):

TAF SBBV 290900Z 2912/3012 33005KT 9999 BKN010 TX29/2917Z TN24/3006Z BECMG 2914/2916 06005KT SCT025 FEW025TCU BECMG 2918/2920 09008KT BECMG 2922/2924 06005KT SCT030 RMK PEH